sensor_id;sensor_type;location;lat;lon;timestamp;temperature;humidity
17348;DHT22;8791;50.876;4.342;2023-09-19T00:02:21;16.60;99.90
17348;DHT22;8791;50.876;4.342;2023-09-19T00:04:48;16.50;99.90
17348;DHT22;8791;50.876;4.342;2023-09-19T00:07:15;16.60;99.90
17348;DHT22;8791;50.876;4.342;2023-09-19T00:09:43;16.70;99.90
17348;DHT22;8791;50.876;4.342;2023-09-19T00:12:10;16.80;99.90
17348;DHT22;8791;50.876;4.342;2023-09-19T00:14:39;16.70;99.90
17348;DHT22;8791;50.876;4.342;2023-09-19T00:17:07;16.60;99.90
17348;DHT22;8791;50.876;4.342;2023-09-19T00:19:34;16.70;99.90
17348;DHT22;8791;50.876;4.342;2023-09-19T00:22:01;16.60;99.90
17348;DHT22;8791;50.876;4.342;2023-09-19T00:24:28;16.50;99.90
17348;DHT22;8791;50.876;4.342;2023-09-19T00:26:56;16.50;99.90
17348;DHT22;8791;50.876;4.342;2023-09-19T00:29:25;16.50;99.90
17348;DHT22;8791;50.876;4.342;2023-09-19T00:31:55;16.50;99.90
17348;DHT22;8791;50.876;4.342;2023-09-19T00:34:23;16.40;99.90
17348;DHT22;8791;50.876;4.342;2023-09-19T00:36:51;16.40;99.90
17348;DHT22;8791;50.876;4.342;2023-09-19T00:39:20;16.30;99.90
17348;DHT22;8791;50.876;4.342;2023-09-19T00:41:47;16.20;99.90
17348;DHT22;8791;50.876;4.342;2023-09-19T00:44:15;16.30;99.90
17348;DHT22;8791;50.876;4.342;2023-09-19T00:46:43;16.30;99.90
17348;DHT22;8791;50.876;4.342;2023-09-19T00:49:13;16.20;99.90
17348;DHT22;8791;50.876;4.342;2023-09-19T00:51:42;16.30;99.90
17348;DHT22;8791;50.876;4.342;2023-09-19T00:54:13;16.20;99.90
17348;DHT22;8791;50.876;4.342;2023-09-19T00:56:44;16.10;99.90
17348;DHT22;8791;50.876;4.342;2023-09-19T00:59:11;16.10;99.90
17348;DHT22;8791;50.876;4.342;2023-09-19T01:01:39;16.00;99.90
17348;DHT22;8791;50.876;4.342;2023-09-19T01:04:06;16.10;99.90
17348;DHT22;8791;50.876;4.342;2023-09-19T01:06:33;16.10;99.90
17348;DHT22;8791;50.876;4.342;2023-09-19T01:09:03;16.10;99.90
17348;DHT22;8791;50.876;4.342;2023-09-19T01:11:37;16.20;99.90
17348;DHT22;8791;50.876;4.342;2023-09-19T01:14:15;16.20;99.90
17348;DHT22;8791;50.876;4.342;2023-09-19T01:16:50;16.20;99.90
17348;DHT22;8791;50.876;4.342;2023-09-19T01:22:30;16.10;99.90
17348;DHT22;8791;50.876;4.342;2023-09-19T01:25:28;16.10;99.90
17348;DHT22;8791;50.876;4.342;2023-09-19T01:28:30;16.00;99.90
17348;DHT22;8791;50.876;4.342;2023-09-19T01:31:04;15.90;99.90
17348;DHT22;8791;50.876;4.342;2023-09-19T01:33:59;16.00;99.90
17348;DHT22;8791;50.876;4.342;2023-09-19T01:36:28;16.10;99.90
17348;DHT22;8791;50.876;4.342;2023-09-19T01:38:57;16.00;99.90
17348;DHT22;8791;50.876;4.342;2023-09-19T01:41:38;15.90;99.90
17348;DHT22;8791;50.876;4.342;2023-09-19T01:44:11;16.00;99.90
17348;DHT22;8791;50.876;4.342;2023-09-19T01:46:42;15.90;99.90
17348;DHT22;8791;50.876;4.342;2023-09-19T01:49:18;16.00;99.90
17348;DHT22;8791;50.876;4.342;2023-09-19T01:51:53;16.10;99.90
17348;DHT22;8791;50.876;4.342;2023-09-19T01:54:26;16.10;99.90
17348;DHT22;8791;50.876;4.342;2023-09-19T01:57:00;16.00;99.90
17348;DHT22;8791;50.876;4.342;2023-09-19T01:59:34;16.10;99.90
17348;DHT22;8791;50.876;4.342;2023-09-19T02:02:04;15.90;99.90
17348;DHT22;8791;50.876;4.342;2023-09-19T02:04:32;15.90;99.90
17348;DHT22;8791;50.876;4.342;2023-09-19T02:07:00;15.90;99.90
17348;DHT22;8791;50.876;4.342;2023-09-19T02:09:28;15.90;99.90
17348;DHT22;8791;50.876;4.342;2023-09-19T02:11:55;15.80;99.90
17348;DHT22;8791;50.876;4.342;2023-09-19T02:14:22;15.80;99.90
17348;DHT22;8791;50.876;4.342;2023-09-19T02:16:49;15.80;99.90
17348;DHT22;8791;50.876;4.342;2023-09-19T02:19:17;15.90;99.90
17348;DHT22;8791;50.876;4.342;2023-09-19T02:21:46;15.90;99.90
17348;DHT22;8791;50.876;4.342;2023-09-19T02:24:14;15.90;99.90
17348;DHT22;8791;50.876;4.342;2023-09-19T02:26:41;16.00;99.90
17348;DHT22;8791;50.876;4.342;2023-09-19T02:29:09;15.90;99.90
17348;DHT22;8791;50.876;4.342;2023-09-19T02:31:38;15.90;99.90
17348;DHT22;8791;50.876;4.342;2023-09-19T02:34:08;16.10;99.90
17348;DHT22;8791;50.876;4.342;2023-09-19T02:36:37;16.10;99.90
17348;DHT22;8791;50.876;4.342;2023-09-19T02:39:04;16.10;99.90
17348;DHT22;8791;50.876;4.342;2023-09-19T02:41:34;16.10;99.90
17348;DHT22;8791;50.876;4.342;2023-09-19T02:44:01;16.10;99.90
17348;DHT22;8791;50.876;4.342;2023-09-19T02:46:28;16.10;99.90
17348;DHT22;8791;50.876;4.342;2023-09-19T02:48:55;16.10;99.90
17348;DHT22;8791;50.876;4.342;2023-09-19T02:51:22;16.10;99.90
17348;DHT22;8791;50.876;4.342;2023-09-19T02:53:51;16.10;99.90
17348;DHT22;8791;50.876;4.342;2023-09-19T02:56:20;16.10;99.90
17348;DHT22;8791;50.876;4.342;2023-09-19T02:58:48;16.00;99.90
17348;DHT22;8791;50.876;4.342;2023-09-19T03:01:15;16.10;99.90
17348;DHT22;8791;50.876;4.342;2023-09-19T03:03:43;16.10;99.90
17348;DHT22;8791;50.876;4.342;2023-09-19T03:06:11;16.00;99.90
17348;DHT22;8791;50.876;4.342;2023-09-19T03:08:39;15.80;99.90
17348;DHT22;8791;50.876;4.342;2023-09-19T03:11:09;15.70;99.90
17348;DHT22;8791;50.876;4.342;2023-09-19T03:13:37;15.70;99.90
17348;DHT22;8791;50.876;4.342;2023-09-19T03:16:05;15.70;99.90
17348;DHT22;8791;50.876;4.342;2023-09-19T03:18:33;15.80;99.90
17348;DHT22;8791;50.876;4.342;2023-09-19T03:21:01;15.90;99.90
17348;DHT22;8791;50.876;4.342;2023-09-19T03:23:28;16.00;99.90
17348;DHT22;8791;50.876;4.342;2023-09-19T03:25:56;15.90;99.90
17348;DHT22;8791;50.876;4.342;2023-09-19T03:28:25;15.70;99.90
17348;DHT22;8791;50.876;4.342;2023-09-19T03:31:00;15.90;99.90
17348;DHT22;8791;50.876;4.342;2023-09-19T03:33:27;16.00;99.90
17348;DHT22;8791;50.876;4.342;2023-09-19T03:35:54;15.90;99.90
17348;DHT22;8791;50.876;4.342;2023-09-19T03:38:23;15.90;99.90
17348;DHT22;8791;50.876;4.342;2023-09-19T03:40:51;15.80;99.90
17348;DHT22;8791;50.876;4.342;2023-09-19T03:43:18;15.90;99.90
17348;DHT22;8791;50.876;4.342;2023-09-19T03:45:46;16.00;99.90
17348;DHT22;8791;50.876;4.342;2023-09-19T03:48:14;15.90;99.90
17348;DHT22;8791;50.876;4.342;2023-09-19T03:50:41;15.70;99.90
17348;DHT22;8791;50.876;4.342;2023-09-19T03:53:09;15.70;99.90
17348;DHT22;8791;50.876;4.342;2023-09-19T03:55:36;15.70;99.90
17348;DHT22;8791;50.876;4.342;2023-09-19T03:58:04;15.70;99.90
17348;DHT22;8791;50.876;4.342;2023-09-19T04:00:31;15.50;99.90
17348;DHT22;8791;50.876;4.342;2023-09-19T04:03:01;15.50;99.90
17348;DHT22;8791;50.876;4.342;2023-09-19T04:05:31;15.40;99.90
17348;DHT22;8791;50.876;4.342;2023-09-19T04:07:59;15.30;99.90
17348;DHT22;8791;50.876;4.342;2023-09-19T04:10:26;15.30;99.90
17348;DHT22;8791;50.876;4.342;2023-09-19T04:12:54;15.30;99.90
17348;DHT22;8791;50.876;4.342;2023-09-19T04:15:21;15.30;99.90
17348;DHT22;8791;50.876;4.342;2023-09-19T04:17:49;15.30;99.90
17348;DHT22;8791;50.876;4.342;2023-09-19T04:20:17;15.30;99.90
17348;DHT22;8791;50.876;4.342;2023-09-19T04:22:45;15.30;99.90
17348;DHT22;8791;50.876;4.342;2023-09-19T04:25:13;15.30;99.90
17348;DHT22;8791;50.876;4.342;2023-09-19T04:27:40;15.30;99.90
17348;DHT22;8791;50.876;4.342;2023-09-19T04:30:08;15.30;99.90
17348;DHT22;8791;50.876;4.342;2023-09-19T04:32:38;15.30;99.90
17348;DHT22;8791;50.876;4.342;2023-09-19T04:35:07;15.20;99.90
17348;DHT22;8791;50.876;4.342;2023-09-19T04:37:37;15.20;99.90
17348;DHT22;8791;50.876;4.342;2023-09-19T04:40:07;15.20;99.90
17348;DHT22;8791;50.876;4.342;2023-09-19T04:42:39;15.20;99.90
17348;DHT22;8791;50.876;4.342;2023-09-19T04:45:07;15.20;99.90
17348;DHT22;8791;50.876;4.342;2023-09-19T04:47:36;15.10;99.90
17348;DHT22;8791;50.876;4.342;2023-09-19T04:50:08;15.20;99.90
17348;DHT22;8791;50.876;4.342;2023-09-19T04:52:41;15.30;99.90
17348;DHT22;8791;50.876;4.342;2023-09-19T04:55:11;15.20;99.90
17348;DHT22;8791;50.876;4.342;2023-09-19T04:57:42;15.00;99.90
17348;DHT22;8791;50.876;4.342;2023-09-19T05:00:11;15.00;99.90
17348;DHT22;8791;50.876;4.342;2023-09-19T05:02:43;15.00;99.90
17348;DHT22;8791;50.876;4.342;2023-09-19T05:05:10;15.00;99.90
17348;DHT22;8791;50.876;4.342;2023-09-19T05:07:40;15.00;99.90
17348;DHT22;8791;50.876;4.342;2023-09-19T05:10:08;15.10;99.90
17348;DHT22;8791;50.876;4.342;2023-09-19T05:12:37;15.10;99.90
17348;DHT22;8791;50.876;4.342;2023-09-19T05:15:05;15.20;99.90
17348;DHT22;8791;50.876;4.342;2023-09-19T05:17:33;15.20;99.90
17348;DHT22;8791;50.876;4.342;2023-09-19T05:20:00;15.10;99.90
17348;DHT22;8791;50.876;4.342;2023-09-19T05:22:32;15.10;99.90
17348;DHT22;8791;50.876;4.342;2023-09-19T05:25:01;15.20;99.90
17348;DHT22;8791;50.876;4.342;2023-09-19T05:27:30;15.20;99.90
17348;DHT22;8791;50.876;4.342;2023-09-19T05:29:57;15.20;99.90
17348;DHT22;8791;50.876;4.342;2023-09-19T05:32:24;15.20;99.90
17348;DHT22;8791;50.876;4.342;2023-09-19T05:34:50;15.20;99.90
17348;DHT22;8791;50.876;4.342;2023-09-19T05:37:19;15.20;99.90
17348;DHT22;8791;50.876;4.342;2023-09-19T05:39:46;15.30;99.90
17348;DHT22;8791;50.876;4.342;2023-09-19T05:42:14;15.20;99.90
17348;DHT22;8791;50.876;4.342;2023-09-19T05:44:41;15.10;99.90
17348;DHT22;8791;50.876;4.342;2023-09-19T05:47:08;15.00;99.90
17348;DHT22;8791;50.876;4.342;2023-09-19T05:49:35;15.00;99.90
17348;DHT22;8791;50.876;4.342;2023-09-19T05:52:04;15.10;99.90
17348;DHT22;8791;50.876;4.342;2023-09-19T05:54:31;15.00;99.90
17348;DHT22;8791;50.876;4.342;2023-09-19T05:56:59;15.10;99.90
17348;DHT22;8791;50.876;4.342;2023-09-19T05:59:28;15.10;99.90
17348;DHT22;8791;50.876;4.342;2023-09-19T06:01:55;15.10;99.90
17348;DHT22;8791;50.876;4.342;2023-09-19T06:04:22;15.10;99.90
17348;DHT22;8791;50.876;4.342;2023-09-19T06:06:49;15.10;99.90
17348;DHT22;8791;50.876;4.342;2023-09-19T06:09:16;15.20;99.90
17348;DHT22;8791;50.876;4.342;2023-09-19T06:11:44;15.20;99.90
17348;DHT22;8791;50.876;4.342;2023-09-19T06:14:12;15.30;99.90
17348;DHT22;8791;50.876;4.342;2023-09-19T06:16:41;15.40;99.90
17348;DHT22;8791;50.876;4.342;2023-09-19T06:19:09;15.50;99.90
17348;DHT22;8791;50.876;4.342;2023-09-19T06:21:36;15.50;99.90
17348;DHT22;8791;50.876;4.342;2023-09-19T06:24:03;15.70;99.90
17348;DHT22;8791;50.876;4.342;2023-09-19T06:26:30;15.50;99.90
17348;DHT22;8791;50.876;4.342;2023-09-19T06:28:57;15.60;99.90
17348;DHT22;8791;50.876;4.342;2023-09-19T06:31:25;15.60;99.90
17348;DHT22;8791;50.876;4.342;2023-09-19T06:33:54;15.60;99.90
17348;DHT22;8791;50.876;4.342;2023-09-19T06:36:21;15.60;99.90
17348;DHT22;8791;50.876;4.342;2023-09-19T06:38:48;15.60;99.90
17348;DHT22;8791;50.876;4.342;2023-09-19T06:41:17;15.60;99.90
17348;DHT22;8791;50.876;4.342;2023-09-19T06:43:44;15.60;99.90
17348;DHT22;8791;50.876;4.342;2023-09-19T06:46:11;15.60;99.90
17348;DHT22;8791;50.876;4.342;2023-09-19T06:48:38;15.80;99.90
17348;DHT22;8791;50.876;4.342;2023-09-19T06:51:07;15.80;99.90
17348;DHT22;8791;50.876;4.342;2023-09-19T06:53:34;15.90;99.90
17348;DHT22;8791;50.876;4.342;2023-09-19T06:56:01;15.80;99.90
17348;DHT22;8791;50.876;4.342;2023-09-19T06:58:29;15.70;99.90
17348;DHT22;8791;50.876;4.342;2023-09-19T07:00:57;15.80;99.90
17348;DHT22;8791;50.876;4.342;2023-09-19T07:03:24;15.90;99.90
17348;DHT22;8791;50.876;4.342;2023-09-19T07:05:54;15.90;99.90
17348;DHT22;8791;50.876;4.342;2023-09-19T07:08:23;15.90;99.90
17348;DHT22;8791;50.876;4.342;2023-09-19T07:10:50;15.90;99.90
17348;DHT22;8791;50.876;4.342;2023-09-19T07:13:18;16.00;99.90
17348;DHT22;8791;50.876;4.342;2023-09-19T07:15:45;15.90;99.90
17348;DHT22;8791;50.876;4.342;2023-09-19T07:18:19;15.80;99.90
17348;DHT22;8791;50.876;4.342;2023-09-19T07:20:46;16.00;99.90
17348;DHT22;8791;50.876;4.342;2023-09-19T07:23:15;16.10;99.90
17348;DHT22;8791;50.876;4.342;2023-09-19T07:25:45;16.10;99.90
17348;DHT22;8791;50.876;4.342;2023-09-19T07:28:12;16.10;99.90
17348;DHT22;8791;50.876;4.342;2023-09-19T07:30:39;16.10;99.90
17348;DHT22;8791;50.876;4.342;2023-09-19T07:33:07;16.10;99.90
17348;DHT22;8791;50.876;4.342;2023-09-19T07:35:36;16.20;99.90
17348;DHT22;8791;50.876;4.342;2023-09-19T07:38:05;16.30;99.90
17348;DHT22;8791;50.876;4.342;2023-09-19T07:40:32;16.30;99.90
17348;DHT22;8791;50.876;4.342;2023-09-19T07:43:00;16.40;99.90
17348;DHT22;8791;50.876;4.342;2023-09-19T07:45:29;16.40;99.90
17348;DHT22;8791;50.876;4.342;2023-09-19T07:47:57;16.30;99.90
17348;DHT22;8791;50.876;4.342;2023-09-19T07:50:26;16.30;99.90
17348;DHT22;8791;50.876;4.342;2023-09-19T07:52:54;16.50;99.90
17348;DHT22;8791;50.876;4.342;2023-09-19T07:55:22;16.50;99.90
17348;DHT22;8791;50.876;4.342;2023-09-19T07:57:51;16.80;99.90
17348;DHT22;8791;50.876;4.342;2023-09-19T08:00:20;16.90;99.90
17348;DHT22;8791;50.876;4.342;2023-09-19T08:02:47;16.90;99.90
17348;DHT22;8791;50.876;4.342;2023-09-19T08:05:18;16.80;99.90
17348;DHT22;8791;50.876;4.342;2023-09-19T08:07:49;16.80;99.90
17348;DHT22;8791;50.876;4.342;2023-09-19T08:10:18;16.90;99.90
17348;DHT22;8791;50.876;4.342;2023-09-19T08:12:47;16.90;99.90
17348;DHT22;8791;50.876;4.342;2023-09-19T08:15:15;17.00;99.90
17348;DHT22;8791;50.876;4.342;2023-09-19T08:17:43;17.10;99.90
17348;DHT22;8791;50.876;4.342;2023-09-19T08:20:11;17.00;99.90
17348;DHT22;8791;50.876;4.342;2023-09-19T08:22:43;17.10;99.90
17348;DHT22;8791;50.876;4.342;2023-09-19T08:25:11;17.20;99.90
17348;DHT22;8791;50.876;4.342;2023-09-19T08:27:38;17.40;99.90
17348;DHT22;8791;50.876;4.342;2023-09-19T08:30:06;17.40;99.90
17348;DHT22;8791;50.876;4.342;2023-09-19T08:32:33;17.40;99.90
17348;DHT22;8791;50.876;4.342;2023-09-19T08:35:01;17.40;99.90
17348;DHT22;8791;50.876;4.342;2023-09-19T08:37:30;17.40;99.90
17348;DHT22;8791;50.876;4.342;2023-09-19T08:39:57;17.40;99.90
17348;DHT22;8791;50.876;4.342;2023-09-19T08:42:24;17.50;99.90
17348;DHT22;8791;50.876;4.342;2023-09-19T08:44:51;17.50;99.90
17348;DHT22;8791;50.876;4.342;2023-09-19T08:47:28;17.50;99.90
17348;DHT22;8791;50.876;4.342;2023-09-19T08:50:10;17.60;99.90
17348;DHT22;8791;50.876;4.342;2023-09-19T08:52:42;17.70;99.90
17348;DHT22;8791;50.876;4.342;2023-09-19T08:55:12;17.70;99.90
17348;DHT22;8791;50.876;4.342;2023-09-19T08:57:46;17.90;99.90
17348;DHT22;8791;50.876;4.342;2023-09-19T09:00:16;17.90;99.90
17348;DHT22;8791;50.876;4.342;2023-09-19T09:02:47;18.10;99.90
17348;DHT22;8791;50.876;4.342;2023-09-19T09:05:16;18.20;99.90
17348;DHT22;8791;50.876;4.342;2023-09-19T09:07:49;18.20;99.90
17348;DHT22;8791;50.876;4.342;2023-09-19T09:10:17;18.20;99.90
17348;DHT22;8791;50.876;4.342;2023-09-19T09:12:48;18.40;99.90
17348;DHT22;8791;50.876;4.342;2023-09-19T09:15:17;18.40;99.90
17348;DHT22;8791;50.876;4.342;2023-09-19T09:17:47;18.50;99.90
17348;DHT22;8791;50.876;4.342;2023-09-19T09:20:17;18.40;99.90
17348;DHT22;8791;50.876;4.342;2023-09-19T09:22:51;18.40;99.90
17348;DHT22;8791;50.876;4.342;2023-09-19T09:25:19;18.40;99.90
17348;DHT22;8791;50.876;4.342;2023-09-19T09:27:58;18.40;99.90
17348;DHT22;8791;50.876;4.342;2023-09-19T09:30:33;18.50;99.90
17348;DHT22;8791;50.876;4.342;2023-09-19T09:33:08;18.60;99.90
17348;DHT22;8791;50.876;4.342;2023-09-19T09:35:47;18.70;99.90
17348;DHT22;8791;50.876;4.342;2023-09-19T09:38:17;18.80;99.90
17348;DHT22;8791;50.876;4.342;2023-09-19T09:40:49;19.00;99.90
17348;DHT22;8791;50.876;4.342;2023-09-19T09:43:28;19.00;99.90
17348;DHT22;8791;50.876;4.342;2023-09-19T09:46:14;19.00;99.90
17348;DHT22;8791;50.876;4.342;2023-09-19T09:49:00;19.00;99.90
17348;DHT22;8791;50.876;4.342;2023-09-19T09:51:49;19.00;99.90
17348;DHT22;8791;50.876;4.342;2023-09-19T09:54:26;18.80;99.90
17348;DHT22;8791;50.876;4.342;2023-09-19T09:57:02;18.80;99.90
17348;DHT22;8791;50.876;4.342;2023-09-19T09:59:49;18.70;99.90
17348;DHT22;8791;50.876;4.342;2023-09-19T10:02:20;18.60;99.90
17348;DHT22;8791;50.876;4.342;2023-09-19T10:04:51;18.80;99.90
17348;DHT22;8791;50.876;4.342;2023-09-19T10:07:30;18.80;99.90
17348;DHT22;8791;50.876;4.342;2023-09-19T10:10:02;18.60;99.90
17348;DHT22;8791;50.876;4.342;2023-09-19T10:12:43;18.60;99.90
17348;DHT22;8791;50.876;4.342;2023-09-19T10:15:14;18.70;99.90
17348;DHT22;8791;50.876;4.342;2023-09-19T10:17:43;18.70;99.90
17348;DHT22;8791;50.876;4.342;2023-09-19T10:20:13;18.80;99.90
17348;DHT22;8791;50.876;4.342;2023-09-19T10:23:06;18.90;99.90
17348;DHT22;8791;50.876;4.342;2023-09-19T10:25:39;19.00;99.90
17348;DHT22;8791;50.876;4.342;2023-09-19T10:28:08;19.00;99.90
17348;DHT22;8791;50.876;4.342;2023-09-19T10:30:38;18.80;99.90
17348;DHT22;8791;50.876;4.342;2023-09-19T10:33:08;18.90;99.90
17348;DHT22;8791;50.876;4.342;2023-09-19T10:35:39;19.10;99.90
17348;DHT22;8791;50.876;4.342;2023-09-19T10:38:10;19.10;99.90
17348;DHT22;8791;50.876;4.342;2023-09-19T10:40:38;19.10;99.90
17348;DHT22;8791;50.876;4.342;2023-09-19T10:43:12;19.20;99.90
17348;DHT22;8791;50.876;4.342;2023-09-19T10:45:44;19.50;99.90
17348;DHT22;8791;50.876;4.342;2023-09-19T10:48:13;19.40;99.90
17348;DHT22;8791;50.876;4.342;2023-09-19T10:50:45;19.60;99.90
17348;DHT22;8791;50.876;4.342;2023-09-19T10:53:18;19.50;99.90
17348;DHT22;8791;50.876;4.342;2023-09-19T10:55:50;19.50;99.90
17348;DHT22;8791;50.876;4.342;2023-09-19T10:58:30;19.30;99.90
17348;DHT22;8791;50.876;4.342;2023-09-19T11:01:00;19.30;99.90
17348;DHT22;8791;50.876;4.342;2023-09-19T11:03:37;19.40;99.90
17348;DHT22;8791;50.876;4.342;2023-09-19T11:06:11;19.50;99.90
17348;DHT22;8791;50.876;4.342;2023-09-19T11:08:56;19.60;99.90
17348;DHT22;8791;50.876;4.342;2023-09-19T11:11:44;19.80;99.90
17348;DHT22;8791;50.876;4.342;2023-09-19T11:14:40;20.00;99.90
17348;DHT22;8791;50.876;4.342;2023-09-19T11:17:31;20.00;99.90
17348;DHT22;8791;50.876;4.342;2023-09-19T11:20:21;20.00;99.90
17348;DHT22;8791;50.876;4.342;2023-09-19T11:23:23;20.00;99.90
17348;DHT22;8791;50.876;4.342;2023-09-19T11:25:52;20.10;99.90
17348;DHT22;8791;50.876;4.342;2023-09-19T11:28:33;20.20;99.90
17348;DHT22;8791;50.876;4.342;2023-09-19T11:40:28;20.60;99.90
17348;DHT22;8791;50.876;4.342;2023-09-19T11:42:57;20.40;99.90
17348;DHT22;8791;50.876;4.342;2023-09-19T11:46:06;20.30;99.90
17348;DHT22;8791;50.876;4.342;2023-09-19T11:48:33;20.50;99.90
17348;DHT22;8791;50.876;4.342;2023-09-19T11:51:27;20.50;99.90
17348;DHT22;8791;50.876;4.342;2023-09-19T11:53:56;20.60;99.90
17348;DHT22;8791;50.876;4.342;2023-09-19T11:56:25;20.50;99.90
17348;DHT22;8791;50.876;4.342;2023-09-19T11:58:56;20.30;99.90
17348;DHT22;8791;50.876;4.342;2023-09-19T12:01:25;20.30;99.90
17348;DHT22;8791;50.876;4.342;2023-09-19T12:03:55;20.50;99.90
17348;DHT22;8791;50.876;4.342;2023-09-19T12:06:24;20.70;99.90
17348;DHT22;8791;50.876;4.342;2023-09-19T12:08:52;20.80;99.90
17348;DHT22;8791;50.876;4.342;2023-09-19T12:11:22;20.90;99.90
17348;DHT22;8791;50.876;4.342;2023-09-19T12:13:50;20.70;99.90
17348;DHT22;8791;50.876;4.342;2023-09-19T12:16:20;20.60;99.90
17348;DHT22;8791;50.876;4.342;2023-09-19T12:18:51;20.90;99.90
17348;DHT22;8791;50.876;4.342;2023-09-19T12:21:27;20.90;99.90
17348;DHT22;8791;50.876;4.342;2023-09-19T12:24:06;20.90;99.90
17348;DHT22;8791;50.876;4.342;2023-09-19T12:26:41;20.90;99.90
17348;DHT22;8791;50.876;4.342;2023-09-19T12:29:16;20.80;99.90
17348;DHT22;8791;50.876;4.342;2023-09-19T12:31:52;21.00;99.90
17348;DHT22;8791;50.876;4.342;2023-09-19T12:34:24;21.00;99.90
17348;DHT22;8791;50.876;4.342;2023-09-19T12:37:09;20.80;99.90
17348;DHT22;8791;50.876;4.342;2023-09-19T12:39:43;20.60;99.90
17348;DHT22;8791;50.876;4.342;2023-09-19T12:42:15;20.60;99.90
17348;DHT22;8791;50.876;4.342;2023-09-19T12:44:43;20.80;99.90
17348;DHT22;8791;50.876;4.342;2023-09-19T12:47:14;20.80;99.90
17348;DHT22;8791;50.876;4.342;2023-09-19T12:50:13;21.00;99.90
17348;DHT22;8791;50.876;4.342;2023-09-19T12:52:43;20.90;99.90
17348;DHT22;8791;50.876;4.342;2023-09-19T12:55:23;20.90;99.90
17348;DHT22;8791;50.876;4.342;2023-09-19T12:58:12;21.00;99.90
17348;DHT22;8791;50.876;4.342;2023-09-19T13:00:41;20.80;99.90
17348;DHT22;8791;50.876;4.342;2023-09-19T13:03:18;21.00;99.90
17348;DHT22;8791;50.876;4.342;2023-09-19T13:05:52;21.20;99.90
17348;DHT22;8791;50.876;4.342;2023-09-19T13:08:23;21.10;99.90
17348;DHT22;8791;50.876;4.342;2023-09-19T13:11:08;21.20;99.90
17348;DHT22;8791;50.876;4.342;2023-09-19T13:13:39;21.00;99.90
17348;DHT22;8791;50.876;4.342;2023-09-19T13:16:06;21.30;99.90
17348;DHT22;8791;50.876;4.342;2023-09-19T13:18:48;20.90;99.90
17348;DHT22;8791;50.876;4.342;2023-09-19T13:21:29;20.80;99.90
17348;DHT22;8791;50.876;4.342;2023-09-19T13:24:19;21.00;99.90
17348;DHT22;8791;50.876;4.342;2023-09-19T13:26:46;21.30;99.90
17348;DHT22;8791;50.876;4.342;2023-09-19T13:29:13;21.40;99.90
17348;DHT22;8791;50.876;4.342;2023-09-19T13:31:46;21.30;99.90
17348;DHT22;8791;50.876;4.342;2023-09-19T13:34:14;21.60;99.90
17348;DHT22;8791;50.876;4.342;2023-09-19T13:36:43;21.40;99.90
17348;DHT22;8791;50.876;4.342;2023-09-19T13:39:10;21.40;99.90
17348;DHT22;8791;50.876;4.342;2023-09-19T13:41:38;21.70;99.90
17348;DHT22;8791;50.876;4.342;2023-09-19T13:44:06;21.80;99.90
17348;DHT22;8791;50.876;4.342;2023-09-19T13:46:34;21.80;99.90
17348;DHT22;8791;50.876;4.342;2023-09-19T13:49:01;21.60;99.90
17348;DHT22;8791;50.876;4.342;2023-09-19T13:51:30;21.40;99.90
17348;DHT22;8791;50.876;4.342;2023-09-19T13:53:58;21.30;99.90
17348;DHT22;8791;50.876;4.342;2023-09-19T13:56:25;21.30;99.90
17348;DHT22;8791;50.876;4.342;2023-09-19T13:58:53;21.30;99.90
17348;DHT22;8791;50.876;4.342;2023-09-19T14:01:20;21.40;99.90
17348;DHT22;8791;50.876;4.342;2023-09-19T14:03:47;21.40;99.90
17348;DHT22;8791;50.876;4.342;2023-09-19T14:06:15;21.50;99.90
17348;DHT22;8791;50.876;4.342;2023-09-19T14:08:44;21.50;99.90
17348;DHT22;8791;50.876;4.342;2023-09-19T14:11:12;21.40;99.90
17348;DHT22;8791;50.876;4.342;2023-09-19T14:13:42;21.20;99.90
17348;DHT22;8791;50.876;4.342;2023-09-19T14:16:12;21.00;99.90
17348;DHT22;8791;50.876;4.342;2023-09-19T14:18:39;20.90;99.90
17348;DHT22;8791;50.876;4.342;2023-09-19T14:21:07;20.80;99.90
17348;DHT22;8791;50.876;4.342;2023-09-19T14:23:37;20.90;99.90
17348;DHT22;8791;50.876;4.342;2023-09-19T14:26:05;20.90;99.90
17348;DHT22;8791;50.876;4.342;2023-09-19T14:28:32;21.00;99.90
17348;DHT22;8791;50.876;4.342;2023-09-19T14:31:04;21.20;99.90
17348;DHT22;8791;50.876;4.342;2023-09-19T14:33:32;21.20;99.90
17348;DHT22;8791;50.876;4.342;2023-09-19T14:36:02;21.10;99.90
17348;DHT22;8791;50.876;4.342;2023-09-19T14:38:31;21.00;99.90
17348;DHT22;8791;50.876;4.342;2023-09-19T14:40:59;21.20;99.90
17348;DHT22;8791;50.876;4.342;2023-09-19T14:43:28;21.40;99.90
17348;DHT22;8791;50.876;4.342;2023-09-19T14:45:56;21.60;99.90
17348;DHT22;8791;50.876;4.342;2023-09-19T14:48:23;21.70;99.90
17348;DHT22;8791;50.876;4.342;2023-09-19T14:50:51;21.50;99.90
17348;DHT22;8791;50.876;4.342;2023-09-19T14:53:19;21.30;99.90
17348;DHT22;8791;50.876;4.342;2023-09-19T14:55:46;21.00;99.90
17348;DHT22;8791;50.876;4.342;2023-09-19T14:58:17;20.90;99.90
17348;DHT22;8791;50.876;4.342;2023-09-19T15:00:45;20.70;99.90
17348;DHT22;8791;50.876;4.342;2023-09-19T15:03:12;20.60;99.90
17348;DHT22;8791;50.876;4.342;2023-09-19T15:05:40;20.50;99.90
17348;DHT22;8791;50.876;4.342;2023-09-19T15:08:07;20.60;99.90
17348;DHT22;8791;50.876;4.342;2023-09-19T15:10:34;20.60;99.90
17348;DHT22;8791;50.876;4.342;2023-09-19T15:13:01;20.40;99.90
17348;DHT22;8791;50.876;4.342;2023-09-19T15:15:31;20.50;99.90
17348;DHT22;8791;50.876;4.342;2023-09-19T15:17:59;20.50;99.90
17348;DHT22;8791;50.876;4.342;2023-09-19T15:20:27;20.50;99.90
17348;DHT22;8791;50.876;4.342;2023-09-19T15:22:54;20.40;99.90
17348;DHT22;8791;50.876;4.342;2023-09-19T15:25:21;20.50;99.90
17348;DHT22;8791;50.876;4.342;2023-09-19T15:27:49;20.50;99.90
17348;DHT22;8791;50.876;4.342;2023-09-19T15:30:16;20.50;99.90
17348;DHT22;8791;50.876;4.342;2023-09-19T15:32:43;20.50;99.90
17348;DHT22;8791;50.876;4.342;2023-09-19T15:35:12;20.50;99.90
17348;DHT22;8791;50.876;4.342;2023-09-19T15:37:43;20.60;99.90
17348;DHT22;8791;50.876;4.342;2023-09-19T15:40:10;20.70;99.90
17348;DHT22;8791;50.876;4.342;2023-09-19T15:42:38;20.60;99.90
17348;DHT22;8791;50.876;4.342;2023-09-19T15:45:07;20.30;99.90
17348;DHT22;8791;50.876;4.342;2023-09-19T15:47:40;20.20;99.90
17348;DHT22;8791;50.876;4.342;2023-09-19T15:50:08;20.30;99.90
17348;DHT22;8791;50.876;4.342;2023-09-19T15:52:40;20.50;99.90
17348;DHT22;8791;50.876;4.342;2023-09-19T15:55:08;20.20;99.90
17348;DHT22;8791;50.876;4.342;2023-09-19T15:57:36;20.00;99.90
17348;DHT22;8791;50.876;4.342;2023-09-19T16:00:05;20.20;99.90
17348;DHT22;8791;50.876;4.342;2023-09-19T16:02:35;20.30;99.90
17348;DHT22;8791;50.876;4.342;2023-09-19T16:05:03;20.20;99.90
17348;DHT22;8791;50.876;4.342;2023-09-19T16:07:32;20.20;99.90
17348;DHT22;8791;50.876;4.342;2023-09-19T16:10:04;20.00;99.90
17348;DHT22;8791;50.876;4.342;2023-09-19T16:12:32;20.10;99.90
17348;DHT22;8791;50.876;4.342;2023-09-19T16:14:59;20.10;99.90
17348;DHT22;8791;50.876;4.342;2023-09-19T16:17:26;20.20;99.90
17348;DHT22;8791;50.876;4.342;2023-09-19T16:19:54;20.00;99.90